Blossom, Texas
Current Conditions -  °F | °C
As of 1:55 PM on Saturday 25 Oct 2014 (Local Time) from KPRX Reporting Station
Clear Clear  
Wind Chill: 84°   Ceiling: Unl
Heat Index: 84°   Visibility: 10mi
Dew Point: 61°   Wind: 7mph
Humidity: 45%   Direction: 230°SW
Pressure: 30.1"   Gusts: NA
Location:  33.66°N, 95.39°W
Report Text: KPRX 251855Z 23006KT 10SM CLR 29/16 A3010 RMK AO1
Loading
Personal Weather Stations






























Interactive Weather Map New forecast layout! Learn more

10-Day Weather Forecast

Advertisements
Track Severe Weather on mobile